Lesley Pg — MXUG5 — position and weather

sailwx.info

Track history (hours):
 
Tides and Currents Weather Stations Pressure Air Temp Water Temp Dewpoint Dewpoint Depression Visibility Wind Speed Wind Dir Waves Ship Positions

Lesley Pg

Last reported at 2015-Aug-02 11:31 UTC. Time now 2015-Aug-03 00:31 UTC.
Position N 18°25' W 064°36'.

Length 102 m; draft 5.2 m.

Type: Tanker. MMSI: 234910000.

Date/timePositionNaut miles runAvg speedWind from/ knotsBaromVisibWave heightAir tempDewpointWater temp
2015-Aug-02 11:31N 18°25' W 064°36'3 3.5
2015-Aug-02 10:33N 18°24' W 064°33'4210.3
2015-Aug-02 06:32N 18°13' W 063°51'11 2.7
2015-Aug-02 02:31N 18°11' W 063°39'1010.6
2015-Aug-02 01:33N 18°09' W 063°29'1110.6
2015-Aug-02 00:33N 18°08' W 063°18'1010.3
2015-Aug-01 23:33N 18°08' W 063°07'4 0.4
2015-Aug-01 13:23N 18°10' W 063°03'810.2
2015-Aug-01 12:33N 18°06' W 063°11'10 9.8
2015-Aug-01 11:32N 17°56' W 063°11'1111.2
2015-Aug-01 10:32N 17°45' W 063°08'19911.1
2015-Jul-31 16:33N 14°47' W 061°36'1111.1
2015-Jul-31 15:33N 14°37' W 061°31'1211.7
2015-Jul-31 14:33N 14°27' W 061°25'1111.5
2015-Jul-31 13:33N 14°16' W 061°20'1111.1
2015-Jul-31 12:33N 14°06' W 061°15'1010.3
2015-Jul-31 11:33N 14°01' W 061°06'3 0.2
2015-Jul-30 23:26N 13°60' W 061°03'9 9.7
2015-Jul-30 22:34N 14°01' W 061°12'2110.1
2015-Jul-30 20:28N 14°20' W 061°20'910.2
2015-Jul-30 19:34N 14°28' W 061°25'1110.6
2015-Jul-30 18:34N 14°38' W 061°29'1111.0
2015-Jul-30 17:32N 14°48' W 061°34'11210.8
2015-Jul-30 07:10N 16°30' W 062°23'711.4
2015-Jul-30 06:33N 16°37' W 062°26'6 0.4
2015-Jul-29 15:14N 16°42' W 062°29'710.6
2015-Jul-29 14:33N 16°36' W 062°26'12311.2
2015-Jul-29 03:33N 14°44' W 061°32'1111.4
2015-Jul-29 02:33N 14°34' W 061°27'1211.8
2015-Jul-29 01:33N 14°23' W 061°22'1111.2
2015-Jul-29 00:33N 14°13' W 061°17'1110.5
2015-Jul-28 23:33N 14°05' W 061°09'9 0.4
2015-Jul-28 04:19N 14°03' W 061°01'  
Track history (hours):
 
Tides and Currents Weather Stations Pressure Air Temp Water Temp Dewpoint Dewpoint Depression Visibility Wind Speed Wind Dir Waves Ship Positions

Lesley Pg

Last reported at 2015-Aug-02 11:31 UTC. Time now 2015-Aug-03 00:32 UTC.
Position N 18°25' W 064°36'.

Length 102 m; draft 5.2 m.

Type: Tanker. MMSI: 234910000.

Date/timePositionNaut miles runAvg speedWind from/ knotsBaromVisibWave heightAir tempDewpointWater temp
2015-Aug-02 11:31N 18°25' W 064°36'3 3.5
2015-Aug-02 10:33N 18°24' W 064°33'4210.3
2015-Aug-02 06:32N 18°13' W 063°51'11 2.7
2015-Aug-02 02:31N 18°11' W 063°39'1010.6
2015-Aug-02 01:33N 18°09' W 063°29'1110.6
2015-Aug-02 00:33N 18°08' W 063°18'1010.3
2015-Aug-01 23:33N 18°08' W 063°07'4 0.4
2015-Aug-01 13:23N 18°10' W 063°03'810.2
2015-Aug-01 12:33N 18°06' W 063°11'10 9.8
2015-Aug-01 11:32N 17°56' W 063°11'1111.2
2015-Aug-01 10:32N 17°45' W 063°08'19911.1
2015-Jul-31 16:33N 14°47' W 061°36'1111.1
2015-Jul-31 15:33N 14°37' W 061°31'1211.7
2015-Jul-31 14:33N 14°27' W 061°25'1111.5
2015-Jul-31 13:33N 14°16' W 061°20'1111.1
2015-Jul-31 12:33N 14°06' W 061°15'1010.3
2015-Jul-31 11:33N 14°01' W 061°06'3 0.2
2015-Jul-30 23:26N 13°60' W 061°03'9 9.7
2015-Jul-30 22:34N 14°01' W 061°12'2110.1
2015-Jul-30 20:28N 14°20' W 061°20'910.2
2015-Jul-30 19:34N 14°28' W 061°25'1110.6
2015-Jul-30 18:34N 14°38' W 061°29'1111.0
2015-Jul-30 17:32N 14°48' W 061°34'11210.8
2015-Jul-30 07:10N 16°30' W 062°23'711.4
2015-Jul-30 06:33N 16°37' W 062°26'6 0.4
2015-Jul-29 15:14N 16°42' W 062°29'710.6
2015-Jul-29 14:33N 16°36' W 062°26'12311.2
2015-Jul-29 03:33N 14°44' W 061°32'1111.4
2015-Jul-29 02:33N 14°34' W 061°27'1211.8
2015-Jul-29 01:33N 14°23' W 061°22'1111.2
2015-Jul-29 00:33N 14°13' W 061°17'1110.5
2015-Jul-28 23:33N 14°05' W 061°09'9 0.4
2015-Jul-28 04:19N 14°03' W 061°01'  

Dump ship's entire track history